Time;durP1;ratioP1;P1;durP2;ratioP2;P2;SDS_P1;SDS_P2;PMS_P1;PMS_P2;Temp;Humidity;BMP_temperature;BMP_pressure;BME280_temperature;BME280_humidity;BME280_pressure;Samples;Min_cycle;Max_cycle;Signal;HPM_P1;HPM_P2
2023/06/30 00:00:12;;;;;;;12.00;4.70;;;;;;;19.31;63.51;100292.86;111026;1209;97609;-62
2023/06/30 00:02:39;;;;;;;13.00;4.90;;;;;;;19.29;63.75;100290.14;110858;1212;140721;-62
2023/06/30 00:05:05;;;;;;;14.70;5.70;;;;;;;19.29;63.81;100292.11;111072;1207;100637;-62
2023/06/30 00:07:30;;;;;;;11.30;5.70;;;;;;;19.28;63.88;100292.38;110904;1213;139464;-62
2023/06/30 00:09:55;;;;;;;17.60;5.90;;;;;;;19.26;64.04;100292.42;111102;1208;97580;-62
2023/06/30 00:12:20;;;;;;;13.10;6.60;;;;;;;19.27;64.26;100293.77;111103;1208;97802;-62
2023/06/30 00:14:46;;;;;;;10.20;5.40;;;;;;;19.28;64.34;100291.16;110966;1209;138653;-62
2023/06/30 00:17:11;;;;;;;18.10;5.70;;;;;;;19.28;64.52;100293.83;111023;1209;97664;-62
2023/06/30 00:19:36;;;;;;;14.70;6.60;;;;;;;19.29;64.50;100293.80;111083;1208;140862;-62
2023/06/30 00:22:01;;;;;;;18.90;6.00;;;;;;;19.31;64.68;100289.77;111142;1208;97661;-63
2023/06/30 00:24:27;;;;;;;12.40;5.60;;;;;;;19.34;64.60;100288.09;111113;1208;97604;-62
2023/06/30 00:26:52;;;;;;;11.80;5.90;;;;;;;19.35;64.72;100290.17;111051;1206;141081;-62
2023/06/30 00:29:18;;;;;;;15.80;6.60;;;;;;;19.36;64.73;100287.90;111058;1208;97872;-62
2023/06/30 00:31:43;;;;;;;14.10;7.00;;;;;;;19.39;64.70;100289.13;110952;1208;139205;-63
2023/06/30 00:34:08;;;;;;;16.60;6.00;;;;;;;19.41;64.82;100286.95;111018;1209;97688;-62
2023/06/30 00:36:33;;;;;;;16.20;6.30;;;;;;;19.42;64.75;100282.52;111024;1208;97665;-62
2023/06/30 00:38:59;;;;;;;10.20;5.10;;;;;;;19.42;64.85;100277.59;110977;1205;138696;-62
2023/06/30 00:41:24;;;;;;;16.80;5.50;;;;;;;19.42;64.73;100273.27;110987;1208;99145;-62
2023/06/30 00:43:49;;;;;;;13.80;6.20;;;;;;;19.44;64.77;100277.29;110976;1209;140564;-62
2023/06/30 00:46:16;;;;;;;15.30;5.30;;;;;;;19.46;64.87;100276.73;111060;1206;97577;-62
2023/06/30 00:48:43;;;;;;;9.80;5.20;;;;;;;19.47;64.81;100272.96;111215;1209;98079;-62
2023/06/30 00:51:09;;;;;;;10.80;4.80;;;;;;;19.50;64.74;100267.66;111017;1209;139546;-62
2023/06/30 00:53:35;;;;;;;11.50;5.20;;;;;;;19.51;64.79;100262.00;111201;1209;97609;-62
2023/06/30 00:56:01;;;;;;;8.90;5.10;;;;;;;19.50;64.83;100260.99;111004;1209;139850;-62
2023/06/30 00:58:26;;;;;;;10.80;5.30;;;;;;;19.46;64.88;100258.20;111049;1206;97695;-62
2023/06/30 01:00:58;;;;;;;11.60;5.30;;;;;;;19.44;64.91;100257.09;111137;1209;98332;-62
2023/06/30 01:03:31;;;;;;;7.90;4.90;;;;;;;19.44;65.04;100258.38;111044;1209;138443;-62
2023/06/30 01:06:23;;;;;;;11.30;5.50;;;;;;;19.44;65.09;100258.74;111253;1208;102563;-62
2023/06/30 01:08:56;;;;;;;16.20;5.90;;;;;;;19.43;65.10;100253.62;111198;1208;141162;-61
2023/06/30 01:11:24;;;;;;;11.60;5.80;;;;;;;19.43;65.17;100253.42;111061;1205;99688;-61
2023/06/30 01:13:50;;;;;;;12.30;5.40;;;;;;;19.44;65.14;100254.42;110921;1208;140698;-64
2023/06/30 01:16:17;;;;;;;10.30;5.40;;;;;;;19.45;65.07;100247.28;111294;1206;97744;-61
2023/06/30 01:18:45;;;;;;;13.50;5.40;;;;;;;19.46;65.19;100244.48;111409;1208;97694;-61
2023/06/30 01:21:13;;;;;;;11.90;5.80;;;;;;;19.45;65.21;100240.73;111107;1208;138648;-61
2023/06/30 01:23:47;;;;;;;12.40;6.40;;;;;;;19.43;65.23;100236.02;111136;1208;97652;-62
2023/06/30 01:26:12;;;;;;;10.80;6.10;;;;;;;19.39;65.38;100236.00;111031;1221;140951;-62
2023/06/30 01:28:38;;;;;;;12.10;6.00;;;;;;;19.39;65.40;100233.68;111159;1206;97933;-62
2023/06/30 01:31:09;;;;;;;21.10;6.30;;;;;;;19.39;65.39;100230.02;111275;1207;97734;-63
2023/06/30 01:33:39;;;;;;;8.80;5.40;;;;;;;19.38;65.46;100230.47;111083;1206;99318;-62
2023/06/30 01:36:06;;;;;;;11.90;5.60;;;;;;;19.36;65.44;100224.88;111126;1205;96568;-63
2023/06/30 01:38:31;;;;;;;11.90;5.40;;;;;;;19.34;65.46;100223.73;110975;1209;139285;-62
2023/06/30 01:40:58;;;;;;;12.30;5.70;;;;;;;19.36;65.41;100224.33;111098;1208;99179;-62
2023/06/30 01:43:25;;;;;;;13.60;5.90;;;;;;;19.38;65.44;100227.23;110949;1219;139712;-62
2023/06/30 01:45:51;;;;;;;7.90;4.80;;;;;;;19.38;65.50;100223.80;110938;1210;97844;-62
2023/06/30 01:48:17;;;;;;;13.10;5.80;;;;;;;19.39;65.57;100224.02;111172;1208;101516;-62
2023/06/30 01:50:45;;;;;;;8.80;5.90;;;;;;;19.40;65.49;100223.54;110986;1208;140577;-62
2023/06/30 01:53:10;;;;;;;11.50;4.80;;;;;;;19.40;65.46;100224.16;111144;1205;99334;-59
2023/06/30 01:55:36;;;;;;;10.90;5.70;;;;;;;19.36;65.53;100221.73;110951;1209;139757;-58
2023/06/30 01:58:02;;;;;;;8.40;5.10;;;;;;;19.34;65.54;100225.55;111198;1208;97577;-59
2023/06/30 02:00:27;;;;;;;10.50;5.60;;;;;;;19.32;65.60;100225.59;111195;1208;97681;-58
2023/06/30 02:02:52;;;;;;;9.50;5.30;;;;;;;19.32;65.84;100225.54;110981;1206;139769;-59
2023/06/30 02:05:17;;;;;;;10.20;5.30;;;;;;;19.33;65.63;100228.71;111181;1209;97597;-59
2023/06/30 02:07:43;;;;;;;13.40;5.30;;;;;;;19.32;65.77;100228.29;110983;1206;139499;-59
2023/06/30 02:10:08;;;;;;;13.30;5.60;;;;;;;19.32;65.84;100233.35;111166;1208;97708;-59
2023/06/30 02:12:35;;;;;;;15.70;6.10;;;;;;;19.31;65.82;100232.34;111105;1208;97697;-60
2023/06/30 02:15:00;;;;;;;10.80;5.30;;;;;;;19.29;65.78;100231.06;111099;1208;138491;-59
2023/06/30 02:17:33;;;;;;;10.80;4.90;;;;;;;19.29;66.04;100233.48;111239;1206;97649;-59
2023/06/30 02:20:06;;;;;;;7.50;4.40;;;;;;;19.28;65.94;100231.02;111081;1209;140795;-58
2023/06/30 02:22:32;;;;;;;13.90;4.70;;;;;;;19.28;65.94;100230.63;111227;1209;97607;-59
2023/06/30 02:24:57;;;;;;;13.70;4.80;;;;;;;19.26;65.87;100227.55;111379;1208;97623;-59
2023/06/30 02:27:24;;;;;;;10.00;5.00;;;;;;;19.23;65.89;100226.89;111155;1208;140370;-60
2023/06/30 02:29:50;;;;;;;9.30;4.70;;;;;;;19.21;65.94;100223.11;111223;1209;99032;-59
2023/06/30 02:32:15;;;;;;;8.50;5.10;;;;;;;19.22;66.06;100215.59;111060;1206;140447;-59
2023/06/30 02:34:40;;;;;;;7.40;4.60;;;;;;;19.26;66.10;100214.16;111189;1206;97599;-59
2023/06/30 02:37:05;;;;;;;11.10;4.20;;;;;;;19.28;66.21;100211.20;111207;1205;97594;-60
2023/06/30 02:39:31;;;;;;;9.60;5.00;;;;;;;19.30;66.18;100211.07;111060;1206;139517;-59
2023/06/30 02:41:57;;;;;;;11.50;4.30;;;;;;;19.30;66.25;100209.08;111141;1206;97590;-59
2023/06/30 02:44:23;;;;;;;9.40;5.40;;;;;;;19.32;66.32;100206.71;110953;1208;139561;-59
2023/06/30 02:46:48;;;;;;;16.80;5.00;;;;;;;19.31;66.37;100207.52;111176;1209;97648;-59
2023/06/30 02:49:13;;;;;;;9.40;5.40;;;;;;;19.30;66.27;100202.86;110917;1209;139153;-59
2023/06/30 02:51:38;;;;;;;12.80;5.40;;;;;;;19.32;66.44;100203.11;111073;1208;97184;-59
2023/06/30 02:54:04;;;;;;;9.80;4.90;;;;;;;19.35;66.48;100201.75;111095;1206;97792;-58
2023/06/30 02:56:29;;;;;;;8.40;4.60;;;;;;;19.36;66.45;100200.39;110830;1208;139489;-58
2023/06/30 02:58:54;;;;;;;9.00;5.00;;;;;;;19.37;66.43;100205.23;111177;1212;96938;-59
2023/06/30 03:01:21;;;;;;;9.60;4.70;;;;;;;19.37;66.65;100201.94;110907;1208;139075;-59
2023/06/30 03:03:47;;;;;;;8.40;4.50;;;;;;;19.37;66.59;100204.63;111047;1208;97590;-59
2023/06/30 03:06:13;;;;;;;6.90;4.30;;;;;;;19.38;66.57;100200.92;111105;1208;97682;-59
2023/06/30 03:08:38;;;;;;;10.80;4.90;;;;;;;19.40;66.67;100199.82;111042;1206;140433;-58
2023/06/30 03:11:03;;;;;;;7.50;4.80;;;;;;;19.42;66.81;100197.31;111032;1206;97671;-58
2023/06/30 03:13:28;;;;;;;9.20;4.90;;;;;;;19.44;66.64;100195.04;110955;1208;138716;-58
2023/06/30 03:15:54;;;;;;;8.00;4.80;;;;;;;19.44;66.71;100190.26;110928;1209;97636;-58
2023/06/30 03:18:19;;;;;;;7.90;4.60;;;;;;;19.42;66.83;100192.05;111073;1208;98508;-59
2023/06/30 03:20:44;;;;;;;10.60;5.60;;;;;;;19.43;66.77;100188.34;110944;1208;138800;-58
2023/06/30 03:23:13;;;;;;;9.30;4.80;;;;;;;19.46;66.88;100189.40;111146;1209;97607;-59
2023/06/30 03:25:38;;;;;;;12.20;4.90;;;;;;;19.48;66.89;100191.90;111117;1208;138826;-59
2023/06/30 03:28:04;;;;;;;8.00;4.20;;;;;;;19.48;66.78;100193.02;111230;1216;97585;-59
2023/06/30 03:30:29;;;;;;;11.20;6.00;;;;;;;19.49;66.80;100194.91;111076;1209;97871;-59
2023/06/30 03:32:54;;;;;;;9.10;4.80;;;;;;;19.49;66.89;100194.57;110915;1206;138576;-58
2023/06/30 03:35:20;;;;;;;10.70;5.10;;;;;;;19.50;67.10;100196.27;111164;1206;98058;-59
2023/06/30 03:37:45;;;;;;;13.00;5.70;;;;;;;19.50;67.08;100201.90;111090;1207;139497;-58
2023/06/30 03:40:11;;;;;;;11.80;6.00;;;;;;;19.51;67.07;100194.36;111203;1206;100515;-59
2023/06/30 03:42:36;;;;;;;7.90;5.60;;;;;;;19.55;67.18;100193.71;111147;1209;97607;-59
2023/06/30 03:45:01;;;;;;;10.60;5.50;;;;;;;19.54;67.12;100191.03;110978;1209;138410;-59
2023/06/30 03:47:27;;;;;;;9.80;4.90;;;;;;;19.53;67.11;100190.99;111190;1208;98204;-58
2023/06/30 03:49:52;;;;;;;17.10;6.40;;;;;;;19.52;67.24;100188.38;111023;1206;140702;-59
2023/06/30 03:52:17;;;;;;;9.70;5.40;;;;;;;19.54;67.31;100189.27;111117;1218;97479;-58
2023/06/30 03:54:42;;;;;;;9.70;5.40;;;;;;;19.56;67.30;100188.20;111135;1206;97668;-58
2023/06/30 03:57:07;;;;;;;8.20;5.00;;;;;;;19.58;67.31;100189.25;111069;1212;138723;-58
2023/06/30 03:59:33;;;;;;;11.30;5.40;;;;;;;19.60;67.29;100187.11;111061;1206;97853;-59
2023/06/30 04:01:58;;;;;;;13.00;5.00;;;;;;;19.62;67.42;100185.77;111083;1209;139735;-59
2023/06/30 04:04:24;;;;;;;11.70;5.30;;;;;;;19.63;67.33;100187.92;111205;1206;97662;-59
2023/06/30 04:06:49;;;;;;;8.60;4.70;;;;;;;19.61;67.39;100187.89;111241;1208;97693;-59
2023/06/30 04:09:15;;;;;;;8.60;4.80;;;;;;;19.58;67.28;100192.73;111028;1210;139696;-58
2023/06/30 04:11:40;;;;;;;11.70;4.90;;;;;;;19.53;67.35;100193.50;111173;1209;103220;-59
2023/06/30 04:14:05;;;;;;;12.60;5.10;;;;;;;19.51;67.37;100191.67;111114;1206;139732;-59
2023/06/30 04:16:30;;;;;;;12.00;5.50;;;;;;;19.51;67.58;100187.86;111143;1208;97758;-58
2023/06/30 04:18:56;;;;;;;9.60;5.40;;;;;;;19.52;67.64;100186.70;111229;1208;97604;-59
2023/06/30 04:21:22;;;;;;;11.20;5.30;;;;;;;19.52;67.44;100185.29;110961;1208;138732;-58
2023/06/30 04:23:47;;;;;;;9.20;5.50;;;;;;;19.51;67.58;100188.26;111171;1208;99311;-58
2023/06/30 04:26:14;;;;;;;11.10;5.10;;;;;;;19.51;67.58;100188.91;110942;1209;138847;-59
2023/06/30 04:28:39;;;;;;;10.00;5.00;;;;;;;19.53;67.57;100185.38;111196;1209;97625;-58
2023/06/30 04:31:04;;;;;;;13.50;5.90;;;;;;;19.54;67.56;100181.13;111186;1210;97941;-59
2023/06/30 04:33:32;;;;;;;9.00;5.50;;;;;;;19.58;67.59;100171.16;110992;1206;139952;-58
2023/06/30 04:35:57;;;;;;;10.50;5.70;;;;;;;19.64;67.57;100168.98;111085;1209;98946;-59
2023/06/30 04:38:23;;;;;;;13.10;5.10;;;;;;;19.72;67.61;100165.53;111115;1206;138668;-58
2023/06/30 04:40:49;;;;;;;8.10;4.50;;;;;;;19.84;67.57;100164.48;111106;1206;97694;-59
2023/06/30 04:43:14;;;;;;;14.00;5.40;;;;;;;19.93;67.40;100163.15;111060;1206;138927;-58
2023/06/30 04:45:39;;;;;;;18.40;5.70;;;;;;;20.02;67.45;100164.61;111086;1210;98157;-59
2023/06/30 04:48:06;;;;;;;11.20;5.80;;;;;;;20.09;67.33;100161.48;111070;1212;99120;-59
2023/06/30 04:50:31;;;;;;;8.50;4.70;;;;;;;20.16;67.30;100164.14;110964;1209;139072;-59
2023/06/30 04:52:56;;;;;;;9.50;4.60;;;;;;;20.26;67.35;100166.29;111077;1211;97848;-59
2023/06/30 04:55:21;;;;;;;11.90;5.10;;;;;;;20.37;67.22;100169.45;110951;1206;138691;-58
2023/06/30 04:57:47;;;;;;;8.60;4.60;;;;;;;20.45;67.14;100169.45;110964;1206;100754;-59
2023/06/30 05:00:13;;;;;;;9.50;4.40;;;;;;;20.53;67.09;100170.14;110778;1206;97958;-59
2023/06/30 05:02:38;;;;;;;7.40;4.50;;;;;;;20.62;66.96;100171.73;111040;1208;140062;-59
2023/06/30 05:05:04;;;;;;;13.00;5.00;;;;;;;20.67;67.01;100171.59;111159;1206;97602;-60
2023/06/30 05:07:30;;;;;;;14.10;5.00;;;;;;;20.73;67.01;100170.79;111114;1206;138056;-59
2023/06/30 05:09:56;;;;;;;13.80;4.50;;;;;;;20.79;66.72;100174.45;111068;1208;97691;-58
2023/06/30 05:12:22;;;;;;;8.20;4.80;;;;;;;20.85;66.51;100173.30;111154;1209;97617;-61
2023/06/30 05:14:48;;;;;;;8.70;4.90;;;;;;;20.89;66.46;100168.41;110980;1206;137706;-58
2023/06/30 05:17:14;;;;;;;15.90;4.80;;;;;;;20.90;66.54;100169.04;111135;1208;97606;-58
2023/06/30 05:19:41;;;;;;;10.20;4.60;;;;;;;20.89;66.35;100168.38;111206;1206;138269;-58
2023/06/30 05:22:06;;;;;;;11.90;4.80;;;;;;;20.91;66.30;100170.21;111050;1209;98895;-59
2023/06/30 05:24:33;;;;;;;11.30;4.10;;;;;;;20.96;66.25;100171.33;111050;1206;97643;-59
2023/06/30 05:26:58;;;;;;;10.50;4.90;;;;;;;21.02;66.16;100170.06;111051;1206;138426;-59
2023/06/30 05:29:24;;;;;;;11.50;4.60;;;;;;;21.06;65.98;100171.15;110904;1209;99082;-58
2023/06/30 05:31:49;;;;;;;7.60;4.80;;;;;;;21.11;65.91;100169.36;110959;1209;139215;-59
2023/06/30 05:34:15;;;;;;;13.00;5.00;;;;;;;21.20;65.93;100168.02;111066;1206;97681;-59
2023/06/30 05:36:46;;;;;;;12.40;5.60;;;;;;;21.27;65.88;100167.52;111102;1208;98635;-60
2023/06/30 05:39:12;;;;;;;;;;;;;;;21.34;65.93;100166.63;110993;1209;140509;-59
2023/06/30 05:41:37;;;;;;;10.40;4.80;;;;;;;21.40;65.63;100166.96;111079;1206;99174;-58
2023/06/30 05:44:03;;;;;;;18.90;5.90;;;;;;;21.47;65.63;100167.00;111060;1205;138525;-59
2023/06/30 05:46:28;;;;;;;12.10;5.20;;;;;;;21.51;65.47;100168.48;111072;1209;97643;-59
2023/06/30 05:48:53;;;;;;;10.10;5.40;;;;;;;21.55;65.61;100164.39;111120;1209;97690;-59
2023/06/30 05:51:19;;;;;;;9.00;4.90;;;;;;;21.62;65.56;100168.13;111120;1206;139212;-59
2023/06/30 05:53:44;;;;;;;11.50;4.40;;;;;;;21.66;65.27;100168.23;111033;1206;97662;-60
2023/06/30 05:56:09;;;;;;;13.60;5.30;;;;;;;21.67;65.03;100164.86;111040;1206;139292;-60
2023/06/30 05:58:37;;;;;;;8.00;4.40;;;;;;;21.69;65.06;100170.00;111081;1209;97584;-59
2023/06/30 06:01:03;;;;;;;11.00;4.60;;;;;;;21.73;65.15;100172.69;112361;1206;97990;-60
2023/06/30 06:03:30;;;;;;;10.70;4.50;;;;;;;21.83;65.09;100171.33;110958;1218;138714;-59
2023/06/30 06:05:56;;;;;;;10.50;3.80;;;;;;;21.93;65.04;100174.52;110936;1205;97601;-59
2023/06/30 06:08:22;;;;;;;7.20;3.90;;;;;;;22.00;64.88;100175.29;111039;1209;139118;-61
2023/06/30 06:10:48;;;;;;;5.10;4.20;;;;;;;22.11;64.79;100179.88;111088;1208;98718;-59
2023/06/30 06:13:33;;;;;;;11.80;4.70;;;;;;;22.15;64.56;100179.89;111004;1206;139454;-60
2023/06/30 06:15:59;;;;;;;11.10;4.60;;;;;;;22.18;64.54;100185.55;111179;1209;99663;-59
2023/06/30 06:18:24;;;;;;;11.70;4.00;;;;;;;22.21;64.19;100186.17;111255;1209;97681;-59
2023/06/30 06:20:51;;;;;;;6.80;4.00;;;;;;;22.22;64.28;100184.03;111035;1205;139855;-59
2023/06/30 06:23:16;;;;;;;8.80;4.00;;;;;;;22.24;64.10;100182.02;111015;1208;101392;-59
2023/06/30 06:25:41;;;;;;;6.40;3.90;;;;;;;22.28;64.05;100176.90;111050;1206;140245;-60
2023/06/30 06:28:06;;;;;;;6.30;3.60;;;;;;;22.30;63.83;100180.11;111221;1206;97661;-59
2023/06/30 06:30:32;;;;;;;7.60;3.70;;;;;;;22.33;63.64;100176.73;111174;1208;97645;-59
2023/06/30 06:32:57;;;;;;;7.30;3.40;;;;;;;22.39;63.67;100172.38;111125;1205;140624;-59
2023/06/30 06:35:22;;;;;;;6.30;2.90;;;;;;;22.46;63.46;100169.09;111055;1206;97598;-59
2023/06/30 06:37:47;;;;;;;7.70;3.30;;;;;;;22.54;63.51;100170.44;111051;1209;139376;-59
2023/06/30 06:40:13;;;;;;;5.70;3.70;;;;;;;22.59;63.32;100171.95;111117;1206;97590;-59
2023/06/30 06:42:38;;;;;;;6.40;3.80;;;;;;;22.64;63.08;100172.38;111145;1208;97743;-59
2023/06/30 06:45:04;;;;;;;7.50;3.30;;;;;;;22.69;62.95;100171.69;111128;1206;138277;-59
2023/06/30 06:48:08;;;;;;;7.60;3.10;;;;;;;22.74;62.89;100165.89;111139;1206;97630;-59
2023/06/30 06:50:33;;;;;;;8.30;2.80;;;;;;;22.79;62.62;100158.67;111044;1206;137710;-59
2023/06/30 06:52:58;;;;;;;9.00;3.00;;;;;;;22.86;62.58;100161.56;111102;1213;97588;-59
2023/06/30 06:55:24;;;;;;;8.90;3.30;;;;;;;22.90;62.41;100163.86;111078;1208;137876;-60
2023/06/30 06:57:49;;;;;;;4.10;3.00;;;;;;;22.95;62.20;100164.30;111052;1208;97811;-59
2023/06/30 07:00:19;;;;;;;8.10;2.50;;;;;;;22.96;62.02;100167.40;110943;1205;98115;-59
2023/06/30 07:02:44;;;;;;;8.90;4.40;;;;;;;23.02;61.94;100164.70;111001;1208;138431;-59
2023/06/30 07:05:10;;;;;;;11.70;3.10;;;;;;;23.08;61.87;100164.45;111293;1206;97106;-60
2023/06/30 07:07:36;;;;;;;5.80;3.30;;;;;;;23.14;61.64;100161.60;111244;1209;138210;-59
2023/06/30 07:10:02;;;;;;;5.20;3.30;;;;;;;23.21;61.51;100161.41;111363;1208;100353;-59
2023/06/30 07:12:27;;;;;;;8.10;3.40;;;;;;;23.24;61.40;100157.48;111290;1208;97587;-60
2023/06/30 07:14:53;;;;;;;8.10;3.30;;;;;;;23.26;61.30;100159.45;111193;1206;138697;-59
2023/06/30 07:17:18;;;;;;;7.50;3.40;;;;;;;23.28;61.11;100157.02;111228;1208;98125;-59
2023/06/30 07:19:43;;;;;;;4.20;3.40;;;;;;;23.31;60.87;100154.66;111189;1206;138066;-60
2023/06/30 07:22:08;;;;;;;6.50;3.40;;;;;;;23.40;60.80;100149.42;111282;1208;97668;-59
2023/06/30 07:24:34;;;;;;;9.70;3.90;;;;;;;23.42;60.57;100148.95;111258;1206;97588;-60
2023/06/30 07:26:59;;;;;;;6.50;3.00;;;;;;;23.46;60.70;100147.58;111235;1206;138877;-59
2023/06/30 07:29:25;;;;;;;8.50;3.10;;;;;;;23.57;60.43;100147.22;111210;1206;97623;-59
2023/06/30 07:31:50;;;;;;;6.00;3.00;;;;;;;23.66;60.35;100142.29;111229;1206;139418;-59
2023/06/30 07:34:18;;;;;;;6.10;3.10;;;;;;;23.77;60.08;100137.66;111273;1208;97585;-59
2023/06/30 07:36:47;;;;;;;5.00;3.20;;;;;;;23.85;59.90;100137.11;111335;1208;98811;-60
2023/06/30 07:39:13;;;;;;;7.80;2.70;;;;;;;23.92;59.67;100136.73;111082;1208;138684;-60
2023/06/30 07:41:39;;;;;;;7.20;2.50;;;;;;;23.94;59.38;100139.38;111219;1208;97595;-60
2023/06/30 07:44:04;;;;;;;10.70;3.00;;;;;;;23.99;59.23;100137.39;110815;1208;139352;-60
2023/06/30 07:46:30;;;;;;;3.80;2.40;;;;;;;24.07;59.13;100134.23;110891;1206;105733;-60
2023/06/30 07:48:56;;;;;;;4.70;2.60;;;;;;;24.10;58.99;100129.52;111380;1205;98352;-59
2023/06/30 07:51:22;;;;;;;2.80;2.20;;;;;;;24.08;58.77;100130.09;111067;1206;139522;-59
2023/06/30 07:53:47;;;;;;;9.00;2.40;;;;;;;24.05;58.41;100125.42;111109;1208;97786;-59
2023/06/30 07:56:12;;;;;;;4.60;2.40;;;;;;;24.05;58.40;100123.06;110897;1209;139095;-59
2023/06/30 07:58:37;;;;;;;4.40;2.40;;;;;;;24.07;58.29;100120.84;111184;1209;97668;-59
2023/06/30 08:01:03;;;;;;;3.40;2.40;;;;;;;24.08;58.19;100116.60;111179;1205;97613;-59
2023/06/30 08:03:28;;;;;;;3.70;2.70;;;;;;;24.09;57.90;100116.41;111240;1208;139272;-59
2023/06/30 08:05:55;;;;;;;13.40;2.50;;;;;;;24.15;57.90;100116.73;111176;1206;97700;-59
2023/06/30 08:08:20;;;;;;;15.10;3.60;;;;;;;24.18;57.67;100118.77;111009;1206;138267;-59
2023/06/30 08:10:45;;;;;;;5.20;2.20;;;;;;;24.24;57.70;100122.66;111293;1209;98379;-59
2023/06/30 08:13:11;;;;;;;3.70;2.60;;;;;;;24.29;57.36;100122.48;111030;1208;138538;-59
2023/06/30 08:15:36;;;;;;;5.40;2.40;;;;;;;24.36;57.34;100122.70;111178;1208;100536;-62
2023/06/30 08:18:01;;;;;;;5.90;2.30;;;;;;;24.42;57.17;100126.96;111221;1208;97674;-60
2023/06/30 08:20:27;;;;;;;12.90;3.20;;;;;;;24.44;57.14;100127.63;110948;1206;138794;-60
2023/06/30 08:22:52;;;;;;;4.50;2.90;;;;;;;24.49;57.09;100126.89;111041;1208;98475;-59
2023/06/30 08:25:25;;;;;;;6.30;2.50;;;;;;;24.51;56.83;100127.36;110827;1206;138529;-60
2023/06/30 08:27:51;;;;;;;10.70;3.60;;;;;;;24.51;56.62;100125.52;111385;1208;102658;-60
2023/06/30 08:30:17;;;;;;;13.90;2.70;;;;;;;24.51;56.51;100129.25;110971;1208;97702;-59
2023/06/30 08:32:43;;;;;;;7.30;2.90;;;;;;;24.50;56.48;100131.92;110906;1208;137837;-62
2023/06/30 08:35:08;;;;;;;3.80;2.80;;;;;;;24.49;56.25;100133.48;111202;1206;97780;-60
2023/06/30 08:37:34;;;;;;;6.00;2.70;;;;;;;24.48;56.31;100136.64;110989;1209;138596;-60
2023/06/30 08:40:00;;;;;;;6.70;2.80;;;;;;;24.43;56.16;100139.61;111175;1210;99765;-60
2023/06/30 08:42:28;;;;;;;5.60;3.20;;;;;;;24.41;56.07;100137.13;110925;1209;97576;-60
2023/06/30 08:44:56;;;;;;;4.90;2.50;;;;;;;24.41;55.93;100142.17;110960;1209;139491;-59
2023/06/30 08:47:24;;;;;;;5.50;2.70;;;;;;;24.39;55.92;100141.69;110959;1206;103018;-60
2023/06/30 08:49:51;;;;;;;9.60;3.60;;;;;;;24.31;55.93;100140.20;111023;1209;137926;-59
2023/06/30 08:52:16;;;;;;;7.60;2.90;;;;;;;24.25;55.98;100138.21;111032;1211;97717;-62
2023/06/30 08:54:43;;;;;;;7.70;2.90;;;;;;;24.19;56.10;100139.61;111130;1209;98867;-59
2023/06/30 08:57:10;;;;;;;6.00;3.10;;;;;;;24.15;55.97;100140.28;111190;1209;139174;-60
2023/06/30 08:59:36;;;;;;;7.20;2.80;;;;;;;24.11;55.89;100141.05;111154;1206;97667;-59
2023/06/30 09:02:02;;;;;;;4.90;2.90;;;;;;;24.11;55.91;100140.64;110915;1208;138282;-60
2023/06/30 09:04:28;;;;;;;9.20;3.20;;;;;;;24.09;55.94;100144.20;111229;1206;97645;-60
2023/06/30 09:06:55;;;;;;;12.40;3.50;;;;;;;24.07;55.88;100147.68;111225;1208;102996;-61
2023/06/30 09:09:37;;;;;;;27.20;4.60;;;;;;;24.03;56.00;100144.89;111023;1206;139386;-60
2023/06/30 09:12:03;;;;;;;13.60;3.10;;;;;;;23.99;55.83;100146.96;111091;1208;99423;-61
2023/06/30 09:14:33;;;;;;;7.70;2.50;;;;;;;23.91;55.70;100147.98;111192;1208;138919;-60
2023/06/30 09:17:02;;;;;;;10.70;3.30;;;;;;;23.88;55.87;100143.32;111114;1205;96479;-61
2023/06/30 09:19:28;;;;;;;7.50;2.60;;;;;;;23.92;55.79;100143.89;111014;1208;138556;-60
2023/06/30 09:21:55;;;;;;;7.20;2.20;;;;;;;23.93;55.50;100146.31;111113;1208;97691;-61
2023/06/30 09:24:20;;;;;;;8.10;2.50;;;;;;;23.92;55.22;100143.50;111103;1208;97786;-62
2023/06/30 09:26:45;;;;;;;14.00;2.80;;;;;;;23.91;55.14;100144.27;111082;1208;137642;-60
2023/06/30 09:29:12;;;;;;;6.90;2.90;;;;;;;23.95;55.40;100144.25;110952;1206;101682;-60
2023/06/30 09:31:38;;;;;;;21.90;4.00;;;;;;;24.00;55.14;100141.33;111018;1208;138035;-60
2023/06/30 09:34:21;;;;;;;18.50;4.10;;;;;;;24.05;55.01;100144.63;111170;1215;97616;-61
2023/06/30 09:36:52;;;;;;;17.00;3.40;;;;;;;24.15;55.00;100142.06;110925;1209;102100;-61
2023/06/30 09:39:18;;;;;;;7.90;2.90;;;;;;;24.26;55.04;100135.45;110903;1206;138084;-60
2023/06/30 09:41:44;;;;;;;5.40;3.10;;;;;;;24.30;55.03;100136.66;111064;1209;97693;-60
2023/06/30 09:44:11;;;;;;;10.20;3.20;;;;;;;24.31;54.92;100133.14;110963;1204;139210;-61
2023/06/30 09:46:44;;;;;;;6.20;2.20;;;;;;;24.30;54.84;100136.84;111230;1209;97593;-60
2023/06/30 09:49:32;;;;;;;16.20;3.70;;;;;;;24.23;54.62;100134.77;111088;1204;138955;-61
2023/06/30 09:52:05;;;;;;;7.40;2.60;;;;;;;24.14;54.51;100129.73;111144;1209;97699;-60
2023/06/30 09:54:30;;;;;;;13.70;3.20;;;;;;;24.04;54.43;100132.03;110977;1206;99406;-60
2023/06/30 09:56:59;;;;;;;5.60;2.40;;;;;;;23.93;54.15;100132.53;110977;1208;138823;-60
2023/06/30 09:59:25;;;;;;;12.70;2.70;;;;;;;23.88;53.98;100132.65;111105;1207;97314;-60
2023/06/30 10:01:58;;;;;;;25.20;4.30;;;;;;;23.85;53.95;100130.13;111105;1206;137958;-60
2023/06/30 10:04:25;;;;;;;8.60;2.50;;;;;;;23.91;54.13;100131.02;111484;1208;99279;-60
2023/06/30 10:06:52;;;;;;;11.30;2.40;;;;;;;23.97;53.97;100130.40;111147;1209;97652;-60
2023/06/30 10:09:20;;;;;;;7.80;2.70;;;;;;;24.03;54.16;100124.23;111172;1209;137875;-60
2023/06/30 10:11:52;;;;;;;10.00;2.60;;;;;;;24.07;54.08;100128.31;111213;1209;97674;-60
2023/06/30 10:14:27;;;;;;;8.00;3.00;;;;;;;24.14;53.97;100130.46;111008;1206;137725;-59
2023/06/30 10:16:55;;;;;;;8.40;2.80;;;;;;;24.21;53.98;100130.77;111100;1208;98341;-60
2023/06/30 10:19:22;;;;;;;12.80;3.10;;;;;;;24.27;54.11;100128.73;111078;1209;137838;-60
2023/06/30 10:21:49;;;;;;;10.30;3.10;;;;;;;24.37;54.19;100127.81;111200;1206;97781;-60
2023/06/30 10:24:17;;;;;;;8.10;2.60;;;;;;;24.44;54.15;100124.86;111108;1209;98681;-60
2023/06/30 10:26:42;;;;;;;7.20;3.10;;;;;;;24.48;54.02;100125.20;110941;1206;138282;-61
2023/06/30 10:29:08;;;;;;;22.10;3.90;;;;;;;24.58;54.37;100124.98;111185;1206;98308;-60
2023/06/30 10:31:35;;;;;;;9.30;2.70;;;;;;;24.78;54.10;100123.05;110898;1206;139755;-60
2023/06/30 10:34:01;;;;;;;12.30;3.50;;;;;;;24.86;54.08;100123.63;111261;1206;97888;-60
2023/06/30 10:36:27;;;;;;;12.10;3.70;;;;;;;25.02;54.17;100119.85;111082;1206;97658;-60
2023/06/30 10:38:54;;;;;;;14.50;3.90;;;;;;;25.21;54.15;100114.41;111117;1210;137941;-60
2023/06/30 10:41:22;;;;;;;7.80;2.80;;;;;;;25.31;54.01;100119.05;111257;1208;97639;-60
2023/06/30 10:44:09;;;;;;;6.20;2.90;;;;;;;25.24;53.59;100119.80;111061;1208;137965;-60
2023/06/30 10:46:52;;;;;;;18.20;3.60;;;;;;;25.12;53.54;100120.91;111048;1207;111946;-60
2023/06/30 10:49:25;;;;;;;6.80;2.90;;;;;;;25.16;53.38;100122.00;110997;1206;139129;-60
2023/06/30 10:51:51;;;;;;;6.00;2.90;;;;;;;25.18;53.65;100123.55;111140;1209;99446;-60
2023/06/30 10:54:25;;;;;;;5.90;2.90;;;;;;;25.22;53.50;100128.96;111158;1209;97725;-60
2023/06/30 10:56:51;;;;;;;9.30;3.80;;;;;;;25.26;53.63;100129.19;111079;1209;138048;-60
2023/06/30 10:59:22;;;;;;;8.20;3.00;;;;;;;25.30;53.42;100133.06;111257;1209;97717;-60
2023/06/30 11:02:11;;;;;;;9.20;3.30;;;;;;;25.16;53.38;100128.48;111156;1209;137847;-60
2023/06/30 11:04:37;;;;;;;10.80;3.10;;;;;;;25.15;53.55;100128.31;111164;1209;100798;-59
2023/06/30 11:07:03;;;;;;;8.30;3.20;;;;;;;25.08;53.43;100130.79;111383;1208;97670;-59